sensor_id;sensor_type;location;lat;lon;timestamp;P1;durP1;ratioP1;P2;durP2;ratioP2
80131;SDS011;69442;51.442;10.564;2023-05-10T00:02:01;3.85;;;2.40;;
80131;SDS011;69442;51.442;10.564;2023-05-10T00:04:27;4.22;;;2.55;;
80131;SDS011;69442;51.442;10.564;2023-05-10T00:06:53;3.78;;;2.75;;
80131;SDS011;69442;51.442;10.564;2023-05-10T00:09:18;3.65;;;2.53;;
80131;SDS011;69442;51.442;10.564;2023-05-10T00:11:44;4.38;;;2.47;;
80131;SDS011;69442;51.442;10.564;2023-05-10T00:14:09;3.33;;;2.55;;
80131;SDS011;69442;51.442;10.564;2023-05-10T00:16:35;7.18;;;2.35;;
80131;SDS011;69442;51.442;10.564;2023-05-10T00:19:00;4.65;;;2.70;;
80131;SDS011;69442;51.442;10.564;2023-05-10T00:21:26;3.08;;;2.42;;
80131;SDS011;69442;51.442;10.564;2023-05-10T00:23:53;3.97;;;2.75;;
80131;SDS011;69442;51.442;10.564;2023-05-10T00:26:18;3.25;;;2.50;;
80131;SDS011;69442;51.442;10.564;2023-05-10T00:28:43;4.00;;;2.58;;
80131;SDS011;69442;51.442;10.564;2023-05-10T00:31:09;3.38;;;2.38;;
80131;SDS011;69442;51.442;10.564;2023-05-10T00:33:34;3.47;;;2.28;;
80131;SDS011;69442;51.442;10.564;2023-05-10T00:36:00;4.43;;;2.67;;
80131;SDS011;69442;51.442;10.564;2023-05-10T00:38:25;4.10;;;2.47;;
80131;SDS011;69442;51.442;10.564;2023-05-10T00:40:51;4.93;;;2.40;;
80131;SDS011;69442;51.442;10.564;2023-05-10T00:43:16;5.40;;;2.80;;
80131;SDS011;69442;51.442;10.564;2023-05-10T00:45:42;4.05;;;2.63;;
80131;SDS011;69442;51.442;10.564;2023-05-10T00:48:07;3.80;;;2.80;;
80131;SDS011;69442;51.442;10.564;2023-05-10T00:50:33;3.72;;;2.53;;
80131;SDS011;69442;51.442;10.564;2023-05-10T00:52:59;5.13;;;2.88;;
80131;SDS011;69442;51.442;10.564;2023-05-10T00:55:25;4.60;;;2.65;;
80131;SDS011;69442;51.442;10.564;2023-05-10T00:57:51;3.33;;;2.60;;
80131;SDS011;69442;51.442;10.564;2023-05-10T01:00:18;4.35;;;2.58;;
80131;SDS011;69442;51.442;10.564;2023-05-10T01:02:46;4.38;;;2.72;;
80131;SDS011;69442;51.442;10.564;2023-05-10T01:05:12;6.07;;;2.75;;
80131;SDS011;69442;51.442;10.564;2023-05-10T01:07:38;4.22;;;2.80;;
80131;SDS011;69442;51.442;10.564;2023-05-10T01:10:05;3.97;;;2.70;;
80131;SDS011;69442;51.442;10.564;2023-05-10T01:12:31;4.57;;;3.05;;
80131;SDS011;69442;51.442;10.564;2023-05-10T01:14:58;8.40;;;4.65;;
80131;SDS011;69442;51.442;10.564;2023-05-10T01:17:25;5.57;;;3.15;;
80131;SDS011;69442;51.442;10.564;2023-05-10T01:19:50;8.30;;;4.32;;
80131;SDS011;69442;51.442;10.564;2023-05-10T01:24:55;4.65;;;3.65;;
80131;SDS011;69442;51.442;10.564;2023-05-10T01:33:00;6.07;;;3.97;;
80131;SDS011;69442;51.442;10.564;2023-05-10T01:35:36;5.55;;;3.75;;
80131;SDS011;69442;51.442;10.564;2023-05-10T01:46:43;6.25;;;3.85;;
80131;SDS011;69442;51.442;10.564;2023-05-10T01:49:47;5.55;;;3.83;;
80131;SDS011;69442;51.442;10.564;2023-05-10T01:52:09;5.15;;;3.78;;
80131;SDS011;69442;51.442;10.564;2023-05-10T01:54:38;5.10;;;3.78;;
80131;SDS011;69442;51.442;10.564;2023-05-10T01:57:07;5.18;;;3.90;;
80131;SDS011;69442;51.442;10.564;2023-05-10T01:59:37;5.70;;;3.45;;
80131;SDS011;69442;51.442;10.564;2023-05-10T02:02:05;7.68;;;4.10;;
80131;SDS011;69442;51.442;10.564;2023-05-10T02:04:32;5.22;;;3.65;;
80131;SDS011;69442;51.442;10.564;2023-05-10T02:07:00;6.63;;;3.90;;
80131;SDS011;69442;51.442;10.564;2023-05-10T02:09:25;5.93;;;3.33;;
80131;SDS011;69442;51.442;10.564;2023-05-10T02:11:52;6.38;;;3.50;;
80131;SDS011;69442;51.442;10.564;2023-05-10T02:14:19;5.65;;;3.90;;
80131;SDS011;69442;51.442;10.564;2023-05-10T02:16:47;4.95;;;4.10;;
80131;SDS011;69442;51.442;10.564;2023-05-10T02:19:13;6.63;;;4.63;;
80131;SDS011;69442;51.442;10.564;2023-05-10T02:21:39;4.80;;;3.67;;
80131;SDS011;69442;51.442;10.564;2023-05-10T02:24:06;6.78;;;3.95;;
80131;SDS011;69442;51.442;10.564;2023-05-10T02:26:33;5.60;;;3.85;;
80131;SDS011;69442;51.442;10.564;2023-05-10T02:29:01;6.43;;;3.90;;
80131;SDS011;69442;51.442;10.564;2023-05-10T02:31:29;5.82;;;4.30;;
80131;SDS011;69442;51.442;10.564;2023-05-10T02:33:57;6.57;;;4.03;;
80131;SDS011;69442;51.442;10.564;2023-05-10T02:36:23;4.97;;;3.38;;
80131;SDS011;69442;51.442;10.564;2023-05-10T02:38:52;5.45;;;3.95;;
80131;SDS011;69442;51.442;10.564;2023-05-10T02:41:18;5.38;;;3.88;;
80131;SDS011;69442;51.442;10.564;2023-05-10T02:43:46;6.03;;;4.13;;
80131;SDS011;69442;51.442;10.564;2023-05-10T02:46:12;4.43;;;3.58;;
80131;SDS011;69442;51.442;10.564;2023-05-10T02:48:37;6.18;;;3.83;;
80131;SDS011;69442;51.442;10.564;2023-05-10T02:51:04;5.22;;;3.67;;
80131;SDS011;69442;51.442;10.564;2023-05-10T02:53:33;6.45;;;3.55;;
80131;SDS011;69442;51.442;10.564;2023-05-10T02:56:00;5.25;;;4.07;;
80131;SDS011;69442;51.442;10.564;2023-05-10T02:58:31;5.75;;;3.55;;
80131;SDS011;69442;51.442;10.564;2023-05-10T03:00:57;5.63;;;3.55;;
80131;SDS011;69442;51.442;10.564;2023-05-10T03:03:23;6.75;;;3.78;;
80131;SDS011;69442;51.442;10.564;2023-05-10T03:05:48;4.28;;;3.35;;
80131;SDS011;69442;51.442;10.564;2023-05-10T03:08:13;5.75;;;3.88;;
80131;SDS011;69442;51.442;10.564;2023-05-10T03:10:46;5.40;;;3.45;;
80131;SDS011;69442;51.442;10.564;2023-05-10T03:16:19;4.47;;;3.10;;
80131;SDS011;69442;51.442;10.564;2023-05-10T03:19:06;5.30;;;3.38;;
80131;SDS011;69442;51.442;10.564;2023-05-10T03:21:43;5.50;;;3.58;;
80131;SDS011;69442;51.442;10.564;2023-05-10T03:24:14;4.70;;;4.03;;
80131;SDS011;69442;51.442;10.564;2023-05-10T03:26:41;6.68;;;3.60;;
80131;SDS011;69442;51.442;10.564;2023-05-10T03:29:08;5.50;;;3.72;;
80131;SDS011;69442;51.442;10.564;2023-05-10T03:31:36;5.95;;;3.97;;
80131;SDS011;69442;51.442;10.564;2023-05-10T03:34:03;8.48;;;4.28;;
80131;SDS011;69442;51.442;10.564;2023-05-10T03:36:28;4.78;;;3.75;;
80131;SDS011;69442;51.442;10.564;2023-05-10T03:38:54;5.22;;;3.47;;
80131;SDS011;69442;51.442;10.564;2023-05-10T03:41:19;5.82;;;3.05;;
80131;SDS011;69442;51.442;10.564;2023-05-10T03:43:45;4.35;;;3.28;;
80131;SDS011;69442;51.442;10.564;2023-05-10T03:46:10;7.28;;;3.58;;
80131;SDS011;69442;51.442;10.564;2023-05-10T03:48:36;4.53;;;3.55;;
80131;SDS011;69442;51.442;10.564;2023-05-10T03:51:01;5.18;;;3.40;;
80131;SDS011;69442;51.442;10.564;2023-05-10T03:53:27;4.75;;;3.60;;
80131;SDS011;69442;51.442;10.564;2023-05-10T03:55:52;7.15;;;3.80;;
80131;SDS011;69442;51.442;10.564;2023-05-10T03:58:18;4.47;;;3.50;;
80131;SDS011;69442;51.442;10.564;2023-05-10T04:00:43;5.30;;;4.05;;
80131;SDS011;69442;51.442;10.564;2023-05-10T04:03:10;6.85;;;4.10;;
80131;SDS011;69442;51.442;10.564;2023-05-10T04:05:36;6.20;;;3.75;;
80131;SDS011;69442;51.442;10.564;2023-05-10T04:08:02;5.78;;;3.95;;
80131;SDS011;69442;51.442;10.564;2023-05-10T04:10:28;7.53;;;3.80;;
80131;SDS011;69442;51.442;10.564;2023-05-10T04:12:53;5.15;;;4.00;;
80131;SDS011;69442;51.442;10.564;2023-05-10T04:15:19;5.60;;;4.43;;
80131;SDS011;69442;51.442;10.564;2023-05-10T04:17:45;5.35;;;3.83;;
80131;SDS011;69442;51.442;10.564;2023-05-10T04:20:10;4.75;;;3.85;;
80131;SDS011;69442;51.442;10.564;2023-05-10T04:22:36;7.65;;;4.13;;
80131;SDS011;69442;51.442;10.564;2023-05-10T04:25:02;6.20;;;3.90;;
80131;SDS011;69442;51.442;10.564;2023-05-10T04:27:27;5.75;;;3.70;;
80131;SDS011;69442;51.442;10.564;2023-05-10T04:29:53;6.38;;;4.07;;
80131;SDS011;69442;51.442;10.564;2023-05-10T04:32:18;6.28;;;4.72;;
80131;SDS011;69442;51.442;10.564;2023-05-10T04:34:45;5.43;;;4.18;;
80131;SDS011;69442;51.442;10.564;2023-05-10T04:37:10;4.88;;;3.63;;
80131;SDS011;69442;51.442;10.564;2023-05-10T04:39:35;5.40;;;3.90;;
80131;SDS011;69442;51.442;10.564;2023-05-10T04:42:02;5.65;;;4.00;;
80131;SDS011;69442;51.442;10.564;2023-05-10T04:44:28;6.47;;;4.43;;
80131;SDS011;69442;51.442;10.564;2023-05-10T04:46:55;5.20;;;3.40;;
80131;SDS011;69442;51.442;10.564;2023-05-10T04:49:21;3.08;;;2.08;;
80131;SDS011;69442;51.442;10.564;2023-05-10T04:51:46;4.38;;;3.00;;
80131;SDS011;69442;51.442;10.564;2023-05-10T04:54:12;7.38;;;3.75;;
80131;SDS011;69442;51.442;10.564;2023-05-10T04:56:37;5.40;;;3.65;;
80131;SDS011;69442;51.442;10.564;2023-05-10T04:59:02;5.65;;;4.00;;
80131;SDS011;69442;51.442;10.564;2023-05-10T05:01:28;4.90;;;3.58;;
80131;SDS011;69442;51.442;10.564;2023-05-10T05:03:54;5.53;;;3.78;;
80131;SDS011;69442;51.442;10.564;2023-05-10T05:06:19;8.88;;;3.95;;
80131;SDS011;69442;51.442;10.564;2023-05-10T05:08:46;5.38;;;4.22;;
80131;SDS011;69442;51.442;10.564;2023-05-10T05:11:11;6.53;;;4.40;;
80131;SDS011;69442;51.442;10.564;2023-05-10T05:13:36;5.75;;;4.00;;
80131;SDS011;69442;51.442;10.564;2023-05-10T05:16:02;6.63;;;3.97;;
80131;SDS011;69442;51.442;10.564;2023-05-10T05:18:28;6.10;;;3.80;;
80131;SDS011;69442;51.442;10.564;2023-05-10T05:20:53;7.25;;;3.72;;
80131;SDS011;69442;51.442;10.564;2023-05-10T05:23:19;5.70;;;4.22;;
80131;SDS011;69442;51.442;10.564;2023-05-10T05:25:45;6.70;;;4.13;;
80131;SDS011;69442;51.442;10.564;2023-05-10T05:28:11;6.78;;;4.93;;
80131;SDS011;69442;51.442;10.564;2023-05-10T05:30:36;5.63;;;4.85;;
80131;SDS011;69442;51.442;10.564;2023-05-10T05:33:02;6.10;;;4.45;;
80131;SDS011;69442;51.442;10.564;2023-05-10T05:35:27;6.57;;;4.70;;
80131;SDS011;69442;51.442;10.564;2023-05-10T05:37:53;9.52;;;4.38;;
80131;SDS011;69442;51.442;10.564;2023-05-10T05:40:18;6.28;;;4.55;;
80131;SDS011;69442;51.442;10.564;2023-05-10T05:42:43;6.10;;;4.65;;
80131;SDS011;69442;51.442;10.564;2023-05-10T05:45:09;5.93;;;3.88;;
80131;SDS011;69442;51.442;10.564;2023-05-10T05:47:37;6.80;;;4.03;;
80131;SDS011;69442;51.442;10.564;2023-05-10T05:50:03;8.32;;;4.05;;
80131;SDS011;69442;51.442;10.564;2023-05-10T05:52:29;3.83;;;2.85;;
80131;SDS011;69442;51.442;10.564;2023-05-10T05:54:55;5.70;;;3.90;;
80131;SDS011;69442;51.442;10.564;2023-05-10T05:57:20;5.40;;;4.20;;
80131;SDS011;69442;51.442;10.564;2023-05-10T05:59:46;4.63;;;3.80;;
80131;SDS011;69442;51.442;10.564;2023-05-10T06:02:12;6.10;;;3.83;;
80131;SDS011;69442;51.442;10.564;2023-05-10T06:04:37;7.78;;;4.13;;
80131;SDS011;69442;51.442;10.564;2023-05-10T06:07:03;6.22;;;4.10;;
80131;SDS011;69442;51.442;10.564;2023-05-10T06:09:28;8.95;;;4.07;;
80131;SDS011;69442;51.442;10.564;2023-05-10T06:11:53;5.32;;;4.38;;
80131;SDS011;69442;51.442;10.564;2023-05-10T06:14:21;5.50;;;4.60;;
80131;SDS011;69442;51.442;10.564;2023-05-10T06:16:47;5.53;;;4.07;;
80131;SDS011;69442;51.442;10.564;2023-05-10T06:19:12;6.03;;;4.13;;
80131;SDS011;69442;51.442;10.564;2023-05-10T06:21:38;5.80;;;4.00;;
80131;SDS011;69442;51.442;10.564;2023-05-10T06:24:03;6.07;;;4.05;;
80131;SDS011;69442;51.442;10.564;2023-05-10T06:26:29;6.57;;;4.22;;
80131;SDS011;69442;51.442;10.564;2023-05-10T06:28:54;9.35;;;5.30;;
80131;SDS011;69442;51.442;10.564;2023-05-10T06:31:20;5.80;;;4.40;;
80131;SDS011;69442;51.442;10.564;2023-05-10T06:33:45;7.60;;;4.47;;
80131;SDS011;69442;51.442;10.564;2023-05-10T06:36:11;5.55;;;4.60;;
80131;SDS011;69442;51.442;10.564;2023-05-10T06:38:36;4.97;;;4.43;;
80131;SDS011;69442;51.442;10.564;2023-05-10T06:41:02;5.60;;;4.28;;
80131;SDS011;69442;51.442;10.564;2023-05-10T06:43:27;8.25;;;4.43;;
80131;SDS011;69442;51.442;10.564;2023-05-10T06:45:53;6.78;;;4.93;;
80131;SDS011;69442;51.442;10.564;2023-05-10T06:48:19;4.90;;;4.00;;
80131;SDS011;69442;51.442;10.564;2023-05-10T06:50:44;6.40;;;4.55;;
80131;SDS011;69442;51.442;10.564;2023-05-10T06:53:10;6.25;;;4.43;;
80131;SDS011;69442;51.442;10.564;2023-05-10T06:55:36;5.82;;;4.70;;
80131;SDS011;69442;51.442;10.564;2023-05-10T06:58:02;5.85;;;4.63;;
80131;SDS011;69442;51.442;10.564;2023-05-10T07:00:27;6.90;;;4.95;;
80131;SDS011;69442;51.442;10.564;2023-05-10T07:02:52;6.50;;;4.75;;
80131;SDS011;69442;51.442;10.564;2023-05-10T07:05:18;4.60;;;4.07;;
80131;SDS011;69442;51.442;10.564;2023-05-10T07:07:43;6.25;;;4.22;;
80131;SDS011;69442;51.442;10.564;2023-05-10T07:10:09;6.78;;;4.20;;
80131;SDS011;69442;51.442;10.564;2023-05-10T07:12:34;7.13;;;4.72;;
80131;SDS011;69442;51.442;10.564;2023-05-10T07:15:00;8.18;;;5.25;;
80131;SDS011;69442;51.442;10.564;2023-05-10T07:17:25;6.78;;;4.95;;
80131;SDS011;69442;51.442;10.564;2023-05-10T07:19:50;6.68;;;5.45;;
80131;SDS011;69442;51.442;10.564;2023-05-10T07:22:16;7.28;;;5.47;;
80131;SDS011;69442;51.442;10.564;2023-05-10T07:24:42;6.30;;;4.63;;
80131;SDS011;69442;51.442;10.564;2023-05-10T07:27:09;8.75;;;5.20;;
80131;SDS011;69442;51.442;10.564;2023-05-10T07:29:34;7.70;;;6.20;;
80131;SDS011;69442;51.442;10.564;2023-05-10T07:32:00;6.13;;;4.65;;
80131;SDS011;69442;51.442;10.564;2023-05-10T07:34:26;6.40;;;4.40;;
80131;SDS011;69442;51.442;10.564;2023-05-10T07:36:51;6.80;;;4.55;;
80131;SDS011;69442;51.442;10.564;2023-05-10T07:39:18;6.03;;;4.30;;
80131;SDS011;69442;51.442;10.564;2023-05-10T07:41:45;6.72;;;4.57;;
80131;SDS011;69442;51.442;10.564;2023-05-10T07:44:10;5.35;;;4.45;;
80131;SDS011;69442;51.442;10.564;2023-05-10T07:46:36;6.57;;;4.65;;
80131;SDS011;69442;51.442;10.564;2023-05-10T07:49:01;5.35;;;4.50;;
80131;SDS011;69442;51.442;10.564;2023-05-10T07:51:27;6.47;;;4.95;;
80131;SDS011;69442;51.442;10.564;2023-05-10T07:53:53;7.30;;;4.85;;
80131;SDS011;69442;51.442;10.564;2023-05-10T07:56:25;6.35;;;5.07;;
80131;SDS011;69442;51.442;10.564;2023-05-10T07:58:54;5.70;;;4.65;;
80131;SDS011;69442;51.442;10.564;2023-05-10T08:01:21;7.07;;;5.22;;
80131;SDS011;69442;51.442;10.564;2023-05-10T08:03:48;7.13;;;5.22;;
80131;SDS011;69442;51.442;10.564;2023-05-10T08:06:16;5.85;;;4.93;;
80131;SDS011;69442;51.442;10.564;2023-05-10T08:08:42;6.15;;;5.05;;
80131;SDS011;69442;51.442;10.564;2023-05-10T08:11:08;6.05;;;4.90;;
80131;SDS011;69442;51.442;10.564;2023-05-10T08:13:39;7.50;;;5.30;;
80131;SDS011;69442;51.442;10.564;2023-05-10T08:16:07;6.28;;;4.53;;
80131;SDS011;69442;51.442;10.564;2023-05-10T08:18:33;7.55;;;5.03;;
80131;SDS011;69442;51.442;10.564;2023-05-10T08:20:58;5.85;;;4.75;;
80131;SDS011;69442;51.442;10.564;2023-05-10T08:23:23;7.05;;;5.70;;
80131;SDS011;69442;51.442;10.564;2023-05-10T08:25:49;7.10;;;5.53;;
80131;SDS011;69442;51.442;10.564;2023-05-10T08:28:17;8.55;;;5.25;;
80131;SDS011;69442;51.442;10.564;2023-05-10T08:30:43;6.05;;;5.03;;
80131;SDS011;69442;51.442;10.564;2023-05-10T08:33:08;5.78;;;4.68;;
80131;SDS011;69442;51.442;10.564;2023-05-10T08:35:33;4.90;;;3.28;;
80131;SDS011;69442;51.442;10.564;2023-05-10T08:38:00;4.50;;;3.30;;
80131;SDS011;69442;51.442;10.564;2023-05-10T08:40:25;5.47;;;3.15;;
80131;SDS011;69442;51.442;10.564;2023-05-10T08:42:54;6.93;;;4.20;;
80131;SDS011;69442;51.442;10.564;2023-05-10T08:45:23;5.00;;;3.25;;
80131;SDS011;69442;51.442;10.564;2023-05-10T08:47:51;5.38;;;3.25;;
80131;SDS011;69442;51.442;10.564;2023-05-10T08:50:19;6.32;;;3.30;;
80131;SDS011;69442;51.442;10.564;2023-05-10T08:52:45;4.25;;;2.88;;
80131;SDS011;69442;51.442;10.564;2023-05-10T08:55:13;3.30;;;2.33;;
80131;SDS011;69442;51.442;10.564;2023-05-10T08:57:39;3.97;;;2.50;;
80131;SDS011;69442;51.442;10.564;2023-05-10T09:00:04;3.60;;;2.35;;
80131;SDS011;69442;51.442;10.564;2023-05-10T09:02:30;4.30;;;2.60;;
80131;SDS011;69442;51.442;10.564;2023-05-10T09:04:56;2.28;;;1.70;;
80131;SDS011;69442;51.442;10.564;2023-05-10T09:07:21;2.67;;;1.10;;
80131;SDS011;69442;51.442;10.564;2023-05-10T09:09:47;1.52;;;1.20;;
80131;SDS011;69442;51.442;10.564;2023-05-10T09:12:13;0.77;;;0.50;;
80131;SDS011;69442;51.442;10.564;2023-05-10T09:14:43;0.60;;;0.60;;
80131;SDS011;69442;51.442;10.564;2023-05-10T09:17:10;0.60;;;0.60;;
80131;SDS011;69442;51.442;10.564;2023-05-10T09:19:36;1.70;;;0.50;;
80131;SDS011;69442;51.442;10.564;2023-05-10T09:22:01;0.50;;;0.50;;
80131;SDS011;69442;51.442;10.564;2023-05-10T09:24:28;0.35;;;0.35;;
80131;SDS011;69442;51.442;10.564;2023-05-10T09:26:54;0.85;;;0.43;;
80131;SDS011;69442;51.442;10.564;2023-05-10T09:29:22;0.40;;;0.40;;
80131;SDS011;69442;51.442;10.564;2023-05-10T09:31:48;0.75;;;0.40;;
80131;SDS011;69442;51.442;10.564;2023-05-10T09:34:16;1.55;;;0.70;;
80131;SDS011;69442;51.442;10.564;2023-05-10T09:36:53;0.63;;;0.50;;
80131;SDS011;69442;51.442;10.564;2023-05-10T09:39:20;0.57;;;0.40;;
80131;SDS011;69442;51.442;10.564;2023-05-10T09:41:46;0.73;;;0.60;;
80131;SDS011;69442;51.442;10.564;2023-05-10T09:44:12;0.30;;;0.30;;
80131;SDS011;69442;51.442;10.564;2023-05-10T09:46:42;0.50;;;0.50;;
80131;SDS011;69442;51.442;10.564;2023-05-10T09:49:08;0.95;;;0.60;;
80131;SDS011;69442;51.442;10.564;2023-05-10T09:51:34;1.15;;;0.40;;
80131;SDS011;69442;51.442;10.564;2023-05-10T09:54:09;1.08;;;0.70;;
80131;SDS011;69442;51.442;10.564;2023-05-10T09:56:43;0.68;;;0.45;;
80131;SDS011;69442;51.442;10.564;2023-05-10T09:59:10;0.60;;;0.43;;
80131;SDS011;69442;51.442;10.564;2023-05-10T10:01:37;4.03;;;0.68;;
80131;SDS011;69442;51.442;10.564;2023-05-10T10:04:04;0.82;;;0.40;;
80131;SDS011;69442;51.442;10.564;2023-05-10T10:06:34;2.33;;;0.55;;
80131;SDS011;69442;51.442;10.564;2023-05-10T10:09:04;0.40;;;0.40;;
80131;SDS011;69442;51.442;10.564;2023-05-10T10:11:31;1.60;;;0.80;;
80131;SDS011;69442;51.442;10.564;2023-05-10T10:13:57;1.08;;;0.40;;
80131;SDS011;69442;51.442;10.564;2023-05-10T10:16:23;0.98;;;0.45;;
80131;SDS011;69442;51.442;10.564;2023-05-10T10:18:49;0.70;;;0.50;;
80131;SDS011;69442;51.442;10.564;2023-05-10T10:21:15;1.35;;;0.60;;
80131;SDS011;69442;51.442;10.564;2023-05-10T10:23:41;2.13;;;0.80;;
80131;SDS011;69442;51.442;10.564;2023-05-10T10:26:06;0.85;;;0.60;;
80131;SDS011;69442;51.442;10.564;2023-05-10T10:28:38;0.90;;;0.50;;
80131;SDS011;69442;51.442;10.564;2023-05-10T10:31:22;0.75;;;0.60;;
80131;SDS011;69442;51.442;10.564;2023-05-10T10:33:56;0.65;;;0.50;;
80131;SDS011;69442;51.442;10.564;2023-05-10T10:36:27;2.08;;;0.55;;
80131;SDS011;69442;51.442;10.564;2023-05-10T10:38:56;0.75;;;0.60;;
80131;SDS011;69442;51.442;10.564;2023-05-10T10:41:36;0.77;;;0.50;;
80131;SDS011;69442;51.442;10.564;2023-05-10T10:49:25;2.47;;;0.63;;
80131;SDS011;69442;51.442;10.564;2023-05-10T10:54:40;1.25;;;0.60;;
80131;SDS011;69442;51.442;10.564;2023-05-10T10:57:12;1.25;;;0.70;;
80131;SDS011;69442;51.442;10.564;2023-05-10T10:59:42;2.45;;;0.40;;
80131;SDS011;69442;51.442;10.564;2023-05-10T11:02:09;1.98;;;0.57;;
80131;SDS011;69442;51.442;10.564;2023-05-10T11:04:41;1.08;;;0.90;;
80131;SDS011;69442;51.442;10.564;2023-05-10T11:07:18;0.93;;;0.70;;
80131;SDS011;69442;51.442;10.564;2023-05-10T11:09:45;1.33;;;0.55;;
80131;SDS011;69442;51.442;10.564;2023-05-10T11:12:12;0.70;;;0.60;;
80131;SDS011;69442;51.442;10.564;2023-05-10T11:14:37;0.88;;;0.50;;
80131;SDS011;69442;51.442;10.564;2023-05-10T11:17:21;1.50;;;0.50;;
80131;SDS011;69442;51.442;10.564;2023-05-10T11:22:48;0.52;;;0.47;;
80131;SDS011;69442;51.442;10.564;2023-05-10T11:25:16;0.60;;;0.40;;
80131;SDS011;69442;51.442;10.564;2023-05-10T11:27:41;0.45;;;0.45;;
80131;SDS011;69442;51.442;10.564;2023-05-10T11:30:07;0.73;;;0.57;;
80131;SDS011;69442;51.442;10.564;2023-05-10T11:32:37;0.57;;;0.57;;
80131;SDS011;69442;51.442;10.564;2023-05-10T11:35:12;0.80;;;0.60;;
80131;SDS011;69442;51.442;10.564;2023-05-10T11:37:40;1.50;;;0.70;;
80131;SDS011;69442;51.442;10.564;2023-05-10T11:40:08;1.08;;;0.60;;
80131;SDS011;69442;51.442;10.564;2023-05-10T11:42:37;0.60;;;0.40;;
80131;SDS011;69442;51.442;10.564;2023-05-10T11:45:03;0.82;;;0.50;;
80131;SDS011;69442;51.442;10.564;2023-05-10T11:47:29;0.90;;;0.50;;
80131;SDS011;69442;51.442;10.564;2023-05-10T11:49:55;1.23;;;0.38;;
80131;SDS011;69442;51.442;10.564;2023-05-10T11:52:20;0.95;;;0.50;;
80131;SDS011;69442;51.442;10.564;2023-05-10T11:54:52;0.30;;;0.20;;
80131;SDS011;69442;51.442;10.564;2023-05-10T11:57:20;2.85;;;0.50;;
80131;SDS011;69442;51.442;10.564;2023-05-10T11:59:53;0.30;;;0.30;;
80131;SDS011;69442;51.442;10.564;2023-05-10T12:02:20;0.30;;;0.30;;
80131;SDS011;69442;51.442;10.564;2023-05-10T12:04:45;0.90;;;0.32;;
80131;SDS011;69442;51.442;10.564;2023-05-10T12:07:11;0.52;;;0.40;;
80131;SDS011;69442;51.442;10.564;2023-05-10T12:09:37;0.40;;;0.40;;
80131;SDS011;69442;51.442;10.564;2023-05-10T12:12:02;0.57;;;0.22;;
80131;SDS011;69442;51.442;10.564;2023-05-10T12:14:27;1.33;;;0.50;;
80131;SDS011;69442;51.442;10.564;2023-05-10T12:16:58;0.37;;;0.30;;
80131;SDS011;69442;51.442;10.564;2023-05-10T12:19:23;0.45;;;0.30;;
80131;SDS011;69442;51.442;10.564;2023-05-10T12:21:48;0.30;;;0.30;;
80131;SDS011;69442;51.442;10.564;2023-05-10T12:24:14;0.30;;;0.30;;
80131;SDS011;69442;51.442;10.564;2023-05-10T12:26:42;0.55;;;0.30;;
80131;SDS011;69442;51.442;10.564;2023-05-10T12:29:14;0.30;;;0.30;;
80131;SDS011;69442;51.442;10.564;2023-05-10T12:31:51;0.30;;;0.30;;
80131;SDS011;69442;51.442;10.564;2023-05-10T12:34:31;0.50;;;0.50;;
80131;SDS011;69442;51.442;10.564;2023-05-10T12:37:03;1.02;;;0.40;;
80131;SDS011;69442;51.442;10.564;2023-05-10T12:39:42;0.75;;;0.50;;
80131;SDS011;69442;51.442;10.564;2023-05-10T12:42:09;0.30;;;0.30;;
80131;SDS011;69442;51.442;10.564;2023-05-10T12:44:35;0.45;;;0.30;;
80131;SDS011;69442;51.442;10.564;2023-05-10T12:47:01;1.50;;;0.40;;
80131;SDS011;69442;51.442;10.564;2023-05-10T12:49:26;1.10;;;0.47;;
80131;SDS011;69442;51.442;10.564;2023-05-10T12:51:51;0.25;;;0.25;;
80131;SDS011;69442;51.442;10.564;2023-05-10T12:54:17;0.30;;;0.30;;
80131;SDS011;69442;51.442;10.564;2023-05-10T12:56:42;1.13;;;0.40;;
80131;SDS011;69442;51.442;10.564;2023-05-10T12:59:08;0.50;;;0.30;;
80131;SDS011;69442;51.442;10.564;2023-05-10T13:01:33;0.20;;;0.20;;
80131;SDS011;69442;51.442;10.564;2023-05-10T13:03:59;0.70;;;0.30;;
80131;SDS011;69442;51.442;10.564;2023-05-10T13:06:25;1.00;;;0.50;;
80131;SDS011;69442;51.442;10.564;2023-05-10T13:08:50;0.40;;;0.40;;
80131;SDS011;69442;51.442;10.564;2023-05-10T13:11:16;0.73;;;0.52;;
80131;SDS011;69442;51.442;10.564;2023-05-10T13:13:42;1.38;;;0.40;;
80131;SDS011;69442;51.442;10.564;2023-05-10T13:16:07;0.40;;;0.40;;
80131;SDS011;69442;51.442;10.564;2023-05-10T13:18:33;0.43;;;0.30;;
80131;SDS011;69442;51.442;10.564;2023-05-10T13:20:58;0.40;;;0.40;;
80131;SDS011;69442;51.442;10.564;2023-05-10T13:23:24;0.88;;;0.40;;
80131;SDS011;69442;51.442;10.564;2023-05-10T13:25:49;0.20;;;0.20;;
80131;SDS011;69442;51.442;10.564;2023-05-10T13:28:15;1.02;;;0.40;;
80131;SDS011;69442;51.442;10.564;2023-05-10T13:30:40;1.55;;;0.50;;
80131;SDS011;69442;51.442;10.564;2023-05-10T13:33:05;0.55;;;0.50;;
80131;SDS011;69442;51.442;10.564;2023-05-10T13:35:31;1.25;;;0.40;;
80131;SDS011;69442;51.442;10.564;2023-05-10T13:37:56;0.40;;;0.40;;
80131;SDS011;69442;51.442;10.564;2023-05-10T13:40:22;0.98;;;0.40;;
80131;SDS011;69442;51.442;10.564;2023-05-10T13:42:48;0.40;;;0.40;;
80131;SDS011;69442;51.442;10.564;2023-05-10T13:45:13;1.75;;;0.40;;
80131;SDS011;69442;51.442;10.564;2023-05-10T13:47:38;0.88;;;0.40;;
80131;SDS011;69442;51.442;10.564;2023-05-10T13:50:05;0.65;;;0.40;;
80131;SDS011;69442;51.442;10.564;2023-05-10T13:52:31;0.70;;;0.40;;
80131;SDS011;69442;51.442;10.564;2023-05-10T13:54:56;0.82;;;0.32;;
80131;SDS011;69442;51.442;10.564;2023-05-10T13:57:22;0.60;;;0.35;;
80131;SDS011;69442;51.442;10.564;2023-05-10T13:59:48;0.40;;;0.40;;
80131;SDS011;69442;51.442;10.564;2023-05-10T14:02:14;0.50;;;0.50;;
80131;SDS011;69442;51.442;10.564;2023-05-10T14:04:39;0.30;;;0.30;;
80131;SDS011;69442;51.442;10.564;2023-05-10T14:07:05;0.30;;;0.30;;
80131;SDS011;69442;51.442;10.564;2023-05-10T14:09:30;1.38;;;0.60;;
80131;SDS011;69442;51.442;10.564;2023-05-10T14:11:56;1.55;;;0.50;;
80131;SDS011;69442;51.442;10.564;2023-05-10T14:14:22;1.38;;;0.47;;
80131;SDS011;69442;51.442;10.564;2023-05-10T14:16:48;0.95;;;0.50;;
80131;SDS011;69442;51.442;10.564;2023-05-10T14:19:13;0.63;;;0.40;;
80131;SDS011;69442;51.442;10.564;2023-05-10T14:21:39;2.15;;;0.52;;
80131;SDS011;69442;51.442;10.564;2023-05-10T14:24:04;0.75;;;0.35;;
80131;SDS011;69442;51.442;10.564;2023-05-10T14:26:31;1.27;;;0.43;;
80131;SDS011;69442;51.442;10.564;2023-05-10T14:28:57;0.75;;;0.60;;
80131;SDS011;69442;51.442;10.564;2023-05-10T14:31:22;0.70;;;0.47;;
80131;SDS011;69442;51.442;10.564;2023-05-10T14:33:50;1.88;;;0.60;;
80131;SDS011;69442;51.442;10.564;2023-05-10T14:36:15;1.65;;;0.50;;
80131;SDS011;69442;51.442;10.564;2023-05-10T14:38:40;0.73;;;0.40;;
80131;SDS011;69442;51.442;10.564;2023-05-10T14:41:06;0.95;;;0.50;;
80131;SDS011;69442;51.442;10.564;2023-05-10T14:43:32;0.57;;;0.40;;
80131;SDS011;69442;51.442;10.564;2023-05-10T14:45:57;0.30;;;0.30;;
80131;SDS011;69442;51.442;10.564;2023-05-10T14:48:23;1.55;;;0.55;;
80131;SDS011;69442;51.442;10.564;2023-05-10T14:50:49;0.73;;;0.55;;
80131;SDS011;69442;51.442;10.564;2023-05-10T14:53:15;0.40;;;0.30;;
80131;SDS011;69442;51.442;10.564;2023-05-10T14:55:41;1.90;;;0.55;;
80131;SDS011;69442;51.442;10.564;2023-05-10T14:58:06;0.52;;;0.50;;
80131;SDS011;69442;51.442;10.564;2023-05-10T15:00:31;0.60;;;0.43;;
80131;SDS011;69442;51.442;10.564;2023-05-10T15:02:57;1.02;;;0.50;;